Time;durP1;ratioP1;P1;durP2;ratioP2;P2;SDS_P1;SDS_P2;PMS_P1;PMS_P2;Temp;Humidity;BMP_temperature;BMP_pressure;BME280_temperature;BME280_humidity;BME280_pressure;Samples;Min_cycle;Max_cycle;Signal;HPM_P1;HPM_P2
2022/08/13 00:01:36;;;;;;;2.10;2.00;;;;;;;22.20;39.01;97424.81;5028377;28;20419;-70
2022/08/13 00:04:06;;;;;;;2.20;2.00;;;;;;;22.03;39.23;97430.72;5025942;28;20426;-70
2022/08/13 00:09:09;;;;;;;4.20;2.17;;;;;;;22.04;39.55;97421.69;5027384;28;20807;-69
2022/08/13 00:14:23;;;;;;;2.47;2.10;;;;;;;21.82;40.09;97415.16;5030814;28;20488;-68
2022/08/13 00:16:50;;;;;;;2.60;2.20;;;;;;;21.80;40.22;97415.34;5013229;28;20480;-70
2022/08/13 00:19:16;;;;;;;2.20;2.00;;;;;;;21.54;40.48;97411.88;5030145;28;20450;-70
2022/08/13 00:21:41;;;;;;;3.30;2.43;;;;;;;21.52;40.88;97421.09;5030639;28;20492;-69
2022/08/13 00:24:07;;;;;;;2.60;2.40;;;;;;;21.50;40.76;97416.00;5022225;28;20553;-69
2022/08/13 00:26:33;;;;;;;4.63;2.20;;;;;;;21.55;40.86;97418.81;5030034;28;20188;-69
2022/08/13 00:29:00;;;;;;;5.43;2.30;;;;;;;21.49;40.68;97415.16;5037097;28;20199;-69
2022/08/13 00:31:27;;;;;;;2.60;2.40;;;;;;;21.39;41.22;97414.03;5030322;28;20187;-69
2022/08/13 00:33:54;;;;;;;3.60;2.20;;;;;;;21.44;40.93;97414.19;5029436;28;20430;-70
2022/08/13 00:36:21;;;;;;;2.27;2.00;;;;;;;21.33;41.34;97410.41;5028583;28;20795;-70
2022/08/13 00:38:48;;;;;;;5.33;2.00;;;;;;;21.32;41.34;97403.44;5030165;28;20438;-69
2022/08/13 00:41:37;;;;;;;3.97;2.20;;;;;;;21.41;41.10;97399.47;4996753;28;20477;-70
2022/08/13 00:43:59;;;;;;;2.87;1.53;;;;;;;21.44;40.99;97393.69;5029786;28;20476;-70
2022/08/13 00:46:25;;;;;;;2.07;1.87;;;;;;;21.40;41.40;97394.34;5029318;28;20414;-70
2022/08/13 00:48:53;;;;;;;5.43;1.90;;;;;;;21.35;41.34;97386.19;5030173;28;20207;-70
2022/08/13 00:51:21;;;;;;;4.30;1.90;;;;;;;21.31;41.44;97383.13;5030208;28;20184;-70
2022/08/13 00:53:48;;;;;;;2.83;2.20;;;;;;;21.28;41.42;97386.22;5029231;28;20893;-69
2022/08/13 00:56:14;;;;;;;2.27;2.07;;;;;;;21.24;41.42;97383.19;5030012;28;20434;-69
2022/08/13 00:58:41;;;;;;;2.20;2.00;;;;;;;21.19;41.94;97385.69;5028192;28;20442;-69
2022/08/13 01:01:06;;;;;;;4.40;2.03;;;;;;;21.29;41.58;97383.38;5030183;28;20257;-69
2022/08/13 01:03:35;;;;;;;2.20;2.00;;;;;;;21.22;41.58;97387.13;5025337;28;20438;-70
2022/08/13 01:06:02;;;;;;;1.90;1.80;;;;;;;21.11;42.04;97385.94;5037272;28;20671;-69
2022/08/13 01:08:34;;;;;;;2.40;2.20;;;;;;;21.06;41.90;97383.94;5032976;28;20437;-69
2022/08/13 01:11:11;;;;;;;2.77;1.77;;;;;;;21.02;41.88;97388.03;5022146;28;20464;-70
2022/08/13 01:13:40;;;;;;;5.57;1.80;;;;;;;21.01;42.14;97387.25;5032561;28;20549;-69
2022/08/13 01:16:13;;;;;;;2.60;1.60;;;;;;;20.95;42.31;97396.09;4999751;28;20803;-69
2022/08/13 01:18:41;;;;;;;3.30;1.93;;;;;;;20.96;42.10;97389.72;5033090;28;20437;-70
2022/08/13 01:21:09;;;;;;;7.50;2.07;;;;;;;20.90;42.28;97390.59;5030013;28;20430;-69
2022/08/13 01:23:36;;;;;;;5.43;1.80;;;;;;;20.91;42.14;97397.56;5033619;28;20446;-69
2022/08/13 01:26:02;;;;;;;2.73;1.70;;;;;;;20.82;42.43;97389.00;5031972;28;20469;-71
2022/08/13 01:28:28;;;;;;;1.90;1.80;;;;;;;20.83;42.46;97390.63;5029150;28;20473;-69
2022/08/13 01:30:56;;;;;;;2.80;2.27;;;;;;;20.91;42.72;97388.75;5033933;28;20427;-69
2022/08/13 01:33:23;;;;;;;2.13;1.93;;;;;;;20.86;42.42;97397.38;5026006;28;20474;-70
2022/08/13 01:35:50;;;;;;;12.43;1.90;;;;;;;20.78;42.76;97402.97;5033587;28;20430;-69
2022/08/13 01:38:16;;;;;;;2.20;2.03;;;;;;;20.74;42.74;97391.06;5032269;28;21217;-69
2022/08/13 01:40:44;;;;;;;5.23;1.93;;;;;;;20.80;42.89;97390.22;5036528;28;20471;-69
2022/08/13 01:43:10;;;;;;;2.60;1.93;;;;;;;20.71;43.24;97390.44;5034157;28;20210;-69
2022/08/13 01:45:37;;;;;;;2.60;1.80;;;;;;;20.70;43.12;97386.16;5033677;28;20430;-69
2022/08/13 01:50:47;;;;;;;2.90;1.80;;;;;;;20.66;43.16;97392.13;5028103;28;20426;-69
2022/08/13 01:53:16;;;;;;;2.50;1.93;;;;;;;20.59;43.59;97392.16;5032869;28;20609;-69
2022/08/13 01:55:55;;;;;;;1.90;1.73;;;;;;;20.58;43.42;97387.06;5033484;28;20423;-69
2022/08/13 01:58:24;;;;;;;3.37;1.93;;;;;;;20.50;43.67;97386.25;5030807;28;20442;-69
2022/08/13 02:00:55;;;;;;;3.83;1.90;;;;;;;20.50;43.85;97383.59;5033386;28;20471;-69
2022/08/13 02:03:21;;;;;;;3.00;1.90;;;;;;;20.46;43.73;97384.22;5032264;28;20427;-70
2022/08/13 02:05:49;;;;;;;2.20;2.00;;;;;;;20.44;44.14;97378.28;5036679;28;20821;-69
2022/08/13 02:08:20;;;;;;;4.73;1.57;;;;;;;20.44;43.88;97386.28;5026808;28;20504;-69
2022/08/13 02:10:47;;;;;;;5.17;1.93;;;;;;;20.39;43.93;97390.41;5035416;28;20526;-69
2022/08/13 02:13:15;;;;;;;4.03;2.00;;;;;;;20.35;44.47;97381.19;5034477;28;21000;-69
2022/08/13 02:15:42;;;;;;;2.07;1.97;;;;;;;20.39;44.50;97387.75;5025518;28;20862;-69
2022/08/13 02:18:14;;;;;;;2.57;2.37;;;;;;;20.35;44.38;97386.53;5031570;28;20454;-69
2022/08/13 02:20:40;;;;;;;4.23;2.00;;;;;;;20.39;44.35;97389.56;5032782;28;20492;-69
2022/08/13 02:23:09;;;;;;;2.17;2.00;;;;;;;20.37;44.36;97381.81;5031192;28;20414;-69
2022/08/13 02:25:36;;;;;;;3.83;1.77;;;;;;;20.34;44.42;97386.75;5027557;28;20275;-70
2022/08/13 02:28:02;;;;;;;3.00;1.87;;;;;;;20.29;44.38;97384.69;5040825;28;20449;-69
2022/08/13 02:30:29;;;;;;;2.07;1.83;;;;;;;20.23;44.83;97390.88;5033763;28;20465;-70
2022/08/13 02:32:56;;;;;;;3.23;1.87;;;;;;;20.22;44.91;97384.75;5034938;28;20529;-70
2022/08/13 02:35:23;;;;;;;2.80;2.23;;;;;;;20.12;44.94;97384.34;5031380;28;20504;-69
2022/08/13 02:37:48;;;;;;;3.77;2.10;;;;;;;20.11;45.19;97385.34;5031338;28;20434;-70
2022/08/13 02:42:59;;;;;;;2.13;1.93;;;;;;;20.07;45.44;97387.63;5026398;28;20181;-70
2022/08/13 02:45:26;;;;;;;2.43;2.23;;;;;;;19.98;45.64;97388.06;5031694;28;20495;-69
2022/08/13 02:47:53;;;;;;;2.23;2.03;;;;;;;19.92;45.73;97387.88;5031438;28;20514;-70
2022/08/13 02:50:20;;;;;;;4.20;2.10;;;;;;;19.82;45.84;97391.94;5032020;28;20487;-69
2022/08/13 02:52:48;;;;;;;3.30;2.20;;;;;;;19.75;46.01;97387.47;5035406;28;21117;-69
2022/08/13 02:55:13;;;;;;;2.40;2.17;;;;;;;19.73;46.21;97384.19;5031827;28;20465;-69
2022/08/13 02:57:39;;;;;;;2.23;2.13;;;;;;;19.78;46.10;97384.38;5031173;28;20481;-69
2022/08/13 03:00:05;;;;;;;2.10;1.90;;;;;;;19.82;46.00;97381.31;5024322;28;20184;-69
2022/08/13 03:02:34;;;;;;;2.50;2.30;;;;;;;19.78;46.09;97376.41;5038653;28;20190;-69
2022/08/13 03:05:01;;;;;;;2.27;2.10;;;;;;;19.74;46.50;97383.19;5030859;28;20418;-69
2022/08/13 03:07:26;;;;;;;3.20;2.30;;;;;;;19.65;46.38;97387.88;5021999;28;20786;-69
2022/08/13 03:09:52;;;;;;;2.80;2.60;;;;;;;19.59;46.68;97387.88;5027937;28;20576;-70
2022/08/13 03:12:20;;;;;;;5.80;2.00;;;;;;;19.62;46.63;97392.81;5024251;28;20211;-70
2022/08/13 03:14:46;;;;;;;3.53;2.50;;;;;;;19.60;46.63;97392.19;5010996;28;20924;-70
2022/08/13 03:17:11;;;;;;;7.03;2.30;;;;;;;19.52;46.82;97392.41;5017867;28;20462;-69
2022/08/13 03:19:37;;;;;;;3.43;2.60;;;;;;;19.56;46.92;97385.63;5037539;28;20261;-69
2022/08/13 03:22:02;;;;;;;2.70;2.50;;;;;;;19.59;46.81;97388.72;5030330;28;20179;-69
2022/08/13 03:24:28;;;;;;;2.03;1.93;;;;;;;19.58;46.79;97387.09;5026891;28;20249;-69
2022/08/13 03:26:53;;;;;;;2.13;2.00;;;;;;;19.63;46.83;97391.78;5030179;28;20188;-68
2022/08/13 03:29:19;;;;;;;2.30;2.10;;;;;;;19.53;46.91;97389.53;5037981;28;20335;-68
2022/08/13 03:31:46;;;;;;;9.53;2.10;;;;;;;19.59;46.90;97393.22;5036314;28;20210;-69
2022/08/13 03:34:12;;;;;;;2.33;2.13;;;;;;;19.52;47.13;97400.38;5031277;28;20467;-69
2022/08/13 03:36:37;;;;;;;2.63;2.33;;;;;;;19.47;47.24;97393.81;5030124;28;20446;-69
2022/08/13 03:39:04;;;;;;;3.70;2.37;;;;;;;19.44;47.24;97399.53;5031631;28;20195;-70
2022/08/13 03:41:30;;;;;;;8.63;2.60;;;;;;;19.43;47.32;97397.91;5022773;28;20195;-70
2022/08/13 03:43:56;;;;;;;2.30;2.10;;;;;;;19.45;47.35;97395.88;5030767;28;20415;-70
2022/08/13 03:46:25;;;;;;;5.03;2.50;;;;;;;19.45;47.29;97389.75;5031185;28;20245;-70
2022/08/13 03:48:51;;;;;;;2.23;2.03;;;;;;;19.41;47.42;97404.44;5028864;28;20504;-69
2022/08/13 03:51:23;;;;;;;2.23;2.13;;;;;;;19.31;47.83;97394.22;5029326;28;20427;-69
2022/08/13 03:53:50;;;;;;;3.33;2.67;;;;;;;19.34;47.63;97388.50;5034141;28;20470;-69
2022/08/13 03:56:18;;;;;;;3.50;2.30;;;;;;;19.35;47.82;97382.19;5027371;28;20829;-72
2022/08/13 03:58:46;;;;;;;2.37;2.17;;;;;;;19.24;47.86;97382.78;5029575;28;20446;-69
2022/08/13 04:01:14;;;;;;;2.50;2.30;;;;;;;19.24;48.13;97378.28;5028746;28;20430;-69
2022/08/13 04:03:41;;;;;;;5.53;2.43;;;;;;;19.18;48.20;97382.56;5030597;28;20460;-69
2022/08/13 04:06:16;;;;;;;2.60;2.40;;;;;;;19.19;48.12;97381.53;5022934;28;20439;-69
2022/08/13 04:08:44;;;;;;;3.50;2.70;;;;;;;19.13;48.41;97382.38;5026144;28;20452;-69
2022/08/13 04:11:11;;;;;;;2.67;2.30;;;;;;;19.17;48.42;97377.47;5028818;28;20461;-69
2022/08/13 04:13:38;;;;;;;4.00;2.40;;;;;;;19.21;48.39;97377.88;5022238;28;20465;-69
2022/08/13 04:16:06;;;;;;;2.70;2.50;;;;;;;19.25;48.41;97377.25;5026957;28;20458;-69
2022/08/13 04:18:35;;;;;;;2.50;2.33;;;;;;;19.19;48.66;97381.53;5021984;28;20486;-69
2022/08/13 04:21:06;;;;;;;2.50;2.30;;;;;;;19.08;48.62;97381.34;5029014;28;20956;-69
2022/08/13 04:23:38;;;;;;;3.10;2.27;;;;;;;19.03;48.86;97381.94;5027886;28;20476;-68
2022/08/13 04:26:04;;;;;;;5.57;2.23;;;;;;;19.03;48.70;97387.25;5026752;28;20922;-69
2022/08/13 04:28:29;;;;;;;6.63;3.00;;;;;;;19.03;48.84;97382.75;5014135;28;20442;-69
2022/08/13 04:30:55;;;;;;;2.87;2.57;;;;;;;18.98;48.98;97379.06;5030196;28;20430;-69
2022/08/13 04:33:20;;;;;;;3.87;2.40;;;;;;;19.00;49.00;97374.38;5021809;28;20212;-69
2022/08/13 04:35:46;;;;;;;3.27;2.73;;;;;;;19.05;49.01;97381.75;5027587;28;20222;-71
2022/08/13 04:38:12;;;;;;;6.60;2.30;;;;;;;19.05;48.96;97379.91;5025339;28;20222;-69
2022/08/13 04:40:41;;;;;;;5.67;2.70;;;;;;;18.97;49.14;97382.75;5032951;28;20180;-69
2022/08/13 04:43:07;;;;;;;4.63;2.53;;;;;;;18.97;49.14;97378.25;5032537;28;20930;-69
2022/08/13 04:45:34;;;;;;;2.70;2.13;;;;;;;18.96;49.21;97379.28;5037410;28;20446;-70
2022/08/13 04:48:07;;;;;;;5.13;2.80;;;;;;;18.93;49.18;97377.00;4996075;28;20439;-70
2022/08/13 04:50:34;;;;;;;4.17;2.80;;;;;;;18.90;49.50;97389.88;5026535;28;20426;-70
2022/08/13 04:53:01;;;;;;;4.00;2.33;;;;;;;18.96;49.47;97389.91;5033850;28;20542;-70
2022/08/13 04:55:27;;;;;;;2.67;2.47;;;;;;;18.95;49.57;97390.09;5032974;28;20919;-70
2022/08/13 04:57:53;;;;;;;4.27;2.97;;;;;;;19.00;49.75;97388.47;5031638;28;20430;-69
2022/08/13 05:00:20;;;;;;;2.20;2.10;;;;;;;19.01;49.76;97398.06;5015871;28;20946;-69
2022/08/13 05:02:46;;;;;;;6.03;2.43;;;;;;;18.94;49.80;97396.41;5033646;28;20246;-70
2022/08/13 05:05:12;;;;;;;3.10;2.40;;;;;;;18.75;50.35;97401.47;5033524;28;20454;-69
2022/08/13 05:07:38;;;;;;;3.53;2.63;;;;;;;18.85;50.18;97403.72;5031685;28;20925;-69
2022/08/13 05:10:06;;;;;;;2.63;2.43;;;;;;;19.04;49.87;97402.16;5031406;28;20862;-71
2022/08/13 05:12:35;;;;;;;2.90;2.60;;;;;;;19.13;49.65;97398.31;5038569;28;20473;-68
2022/08/13 05:15:01;;;;;;;5.10;2.40;;;;;;;19.13;49.91;97400.13;5025866;28;20434;-69
2022/08/13 05:17:28;;;;;;;2.40;2.23;;;;;;;19.22;49.61;97396.25;5031460;28;20926;-69
2022/08/13 05:19:54;;;;;;;2.90;2.70;;;;;;;19.16;49.64;97402.41;5033134;28;20925;-69
2022/08/13 05:22:22;;;;;;;2.87;2.67;;;;;;;19.23;49.48;97403.19;5031884;28;20429;-69
2022/08/13 05:24:48;;;;;;;3.07;2.87;;;;;;;19.26;49.66;97402.81;5033288;28;20188;-69
2022/08/13 05:27:13;;;;;;;2.93;2.73;;;;;;;19.34;49.44;97399.13;5033229;28;20430;-70
2022/08/13 05:29:39;;;;;;;2.53;2.33;;;;;;;19.36;49.63;97402.41;5040253;28;20576;-69
2022/08/13 05:32:05;;;;;;;3.23;2.27;;;;;;;19.45;49.44;97401.19;5027318;28;20211;-69
2022/08/13 05:34:31;;;;;;;6.70;2.70;;;;;;;19.52;49.22;97400.38;5037326;28;20191;-70
2022/08/13 05:36:58;;;;;;;4.73;2.53;;;;;;;19.65;49.25;97401.19;5037229;28;20215;-70
2022/08/13 05:39:24;;;;;;;9.67;2.60;;;;;;;19.76;48.91;97399.75;5031704;28;20277;-70
2022/08/13 05:41:49;;;;;;;2.60;2.40;;;;;;;19.87;49.17;97408.13;5033489;28;20426;-69
2022/08/13 05:44:15;;;;;;;3.17;2.87;;;;;;;19.94;48.70;97412.44;5033145;28;20736;-71
2022/08/13 05:46:41;;;;;;;2.80;2.60;;;;;;;20.02;48.34;97411.41;5032843;28;20531;-70
2022/08/13 05:49:07;;;;;;;2.80;2.60;;;;;;;20.12;48.49;97421.59;5032955;28;20210;-69
2022/08/13 05:51:32;;;;;;;4.60;2.73;;;;;;;20.23;48.00;97407.63;5033145;28;20422;-69
2022/08/13 05:53:59;;;;;;;2.83;2.53;;;;;;;20.38;47.65;97410.06;5032161;28;20274;-69
2022/08/13 05:56:35;;;;;;;3.10;2.47;;;;;;;20.41;47.61;97411.47;5030585;28;20179;-68
2022/08/13 05:59:01;;;;;;;3.10;2.80;;;;;;;20.49;47.69;97395.25;5033197;28;20442;-70
2022/08/13 06:04:11;;;;;;;2.40;2.20;;;;;;;20.77;47.19;97401.31;5033358;28;20333;-69
2022/08/13 06:06:36;;;;;;;2.60;2.40;;;;;;;20.94;46.95;97386.47;5033850;28;20426;-69
2022/08/13 06:09:05;;;;;;;2.83;2.50;;;;;;;21.14;46.61;97394.31;5033152;28;20454;-68
2022/08/13 06:11:31;;;;;;;9.17;2.40;;;;;;;21.38;46.33;97396.41;5037856;28;20191;-70
2022/08/13 06:13:56;;;;;;;4.00;2.50;;;;;;;21.61;45.48;97391.31;5032930;28;20910;-69
2022/08/13 06:16:25;;;;;;;2.50;2.30;;;;;;;21.73;44.26;97393.28;5031925;28;20188;-69
2022/08/13 06:18:50;;;;;;;2.60;2.40;;;;;;;21.91;43.76;97390.66;5040421;28;20667;-70
2022/08/13 06:21:18;;;;;;;2.63;2.23;;;;;;;22.12;43.37;97401.09;5036519;28;20441;-70
2022/08/13 06:23:45;;;;;;;2.10;2.00;;;;;;;22.30;42.78;97397.63;5030202;28;20202;-69
2022/08/13 06:26:15;;;;;;;3.23;2.10;;;;;;;22.50;42.75;97403.56;5028563;28;20477;-69
2022/08/13 06:28:41;;;;;;;4.10;2.10;;;;;;;22.71;42.47;97393.44;5039831;28;20466;-70
2022/08/13 06:31:13;;;;;;;3.90;2.30;;;;;;;22.92;41.96;97399.34;5026891;28;20930;-70
2022/08/13 06:33:40;;;;;;;1.97;1.87;;;;;;;23.12;41.13;97404.41;5015291;28;20466;-69
2022/08/13 06:36:14;;;;;;;2.40;2.20;;;;;;;23.31;40.61;97394.47;5025872;28;20462;-69
2022/08/13 06:38:48;;;;;;;2.00;1.90;;;;;;;23.50;40.03;97405.06;5039278;28;20525;-69
2022/08/13 06:41:15;;;;;;;2.10;1.90;;;;;;;23.68;39.74;97396.13;5035428;28;20509;-69
2022/08/13 06:43:43;;;;;;;5.43;2.30;;;;;;;23.83;38.63;97403.69;5031171;28;20418;-69
2022/08/13 06:46:10;;;;;;;2.20;2.00;;;;;;;23.95;38.76;97399.13;5032054;28;20442;-69
2022/08/13 06:48:36;;;;;;;3.20;1.80;;;;;;;24.10;37.95;97406.72;5026138;28;20446;-69
2022/08/13 06:51:05;;;;;;;2.30;2.10;;;;;;;24.26;38.13;97407.88;5032176;28;20862;-68
2022/08/13 06:53:32;;;;;;;2.00;1.83;;;;;;;24.43;37.90;97412.50;5024709;28;20674;-69
2022/08/13 06:55:58;;;;;;;5.60;2.30;;;;;;;24.57;37.29;97411.19;5031931;28;20465;-69
2022/08/13 06:58:28;;;;;;;2.33;2.13;;;;;;;24.70;36.92;97415.47;5029766;28;20435;-69
2022/08/13 07:00:55;;;;;;;7.10;2.20;;;;;;;24.81;36.56;97414.59;5030547;28;20429;-69
2022/08/13 07:03:25;;;;;;;2.40;1.97;;;;;;;24.89;36.22;97418.75;5029014;28;20446;-69
2022/08/13 07:05:51;;;;;;;2.70;2.40;;;;;;;24.95;35.77;97420.47;5032049;28;20505;-69
2022/08/13 07:08:17;;;;;;;3.37;2.40;;;;;;;25.08;36.08;97419.38;5030720;28;20445;-69
2022/08/13 07:10:50;;;;;;;2.97;1.97;;;;;;;25.18;35.68;97421.44;5033906;28;20237;-68
2022/08/13 07:13:19;;;;;;;3.83;2.07;;;;;;;25.25;35.63;97414.03;5016283;28;20921;-69
2022/08/13 07:15:45;;;;;;;3.30;2.43;;;;;;;25.36;35.70;97419.56;5036569;28;20422;-69
2022/08/13 07:18:11;;;;;;;6.70;2.40;;;;;;;25.43;35.15;97420.28;5030807;28;20453;-69
2022/08/13 07:20:37;;;;;;;2.20;2.10;;;;;;;25.53;35.33;97414.22;5031898;28;20226;-70
2022/08/13 07:23:03;;;;;;;3.30;2.23;;;;;;;25.68;35.37;97414.47;5026472;28;20423;-69
2022/08/13 07:25:31;;;;;;;2.60;1.97;;;;;;;25.75;34.22;97417.00;5031133;28;20423;-69
2022/08/13 07:27:58;;;;;;;2.30;2.10;;;;;;;25.84;34.36;97418.19;5036130;28;20179;-69
2022/08/13 07:30:24;;;;;;;5.47;2.60;;;;;;;25.95;34.04;97424.53;5031460;28;20860;-69
2022/08/13 07:32:52;;;;;;;6.23;2.13;;;;;;;26.07;34.53;97421.75;5027806;28;20520;-68
2022/08/13 07:35:18;;;;;;;4.50;2.13;;;;;;;26.16;33.94;97427.53;5027041;28;20187;-68
2022/08/13 07:37:44;;;;;;;6.43;2.07;;;;;;;26.28;34.08;97422.06;5030267;28;20488;-68
2022/08/13 07:40:10;;;;;;;3.73;2.27;;;;;;;26.39;33.87;97428.38;5029799;28;20219;-69
2022/08/13 07:42:40;;;;;;;3.23;1.93;;;;;;;26.48;33.81;97424.97;5029899;28;20897;-69
2022/08/13 07:45:06;;;;;;;2.10;1.90;;;;;;;26.57;33.01;97425.38;5037404;28;20299;-68
2022/08/13 07:47:33;;;;;;;2.27;1.97;;;;;;;26.69;33.49;97425.25;5028970;28;20437;-68
2022/08/13 07:50:01;;;;;;;3.77;2.10;;;;;;;26.81;33.03;97427.81;5030134;28;20434;-68
2022/08/13 07:52:29;;;;;;;2.47;2.00;;;;;;;26.93;32.72;97422.31;5013192;28;20562;-69
2022/08/13 07:54:55;;;;;;;2.33;2.00;;;;;;;27.00;32.32;97414.03;5025443;28;20552;-68
2022/08/13 07:57:23;;;;;;;2.63;1.90;;;;;;;27.08;32.04;97410.88;5025938;28;20914;-68
2022/08/13 07:59:49;;;;;;;2.73;1.80;;;;;;;27.14;31.96;97412.56;5026018;28;20253;-70
2022/08/13 08:02:14;;;;;;;1.80;1.70;;;;;;;27.24;32.16;97411.81;5029712;28;20840;-70
2022/08/13 08:04:41;;;;;;;2.03;1.93;;;;;;;27.37;31.97;97405.22;5030818;28;20184;-69
2022/08/13 08:07:08;;;;;;;3.23;1.90;;;;;;;27.48;31.36;97409.66;5021908;28;20262;-68
2022/08/13 08:09:34;;;;;;;2.20;2.00;;;;;;;27.64;31.33;97417.84;5030751;28;21018;-69
2022/08/13 08:14:45;;;;;;;2.90;1.87;;;;;;;27.82;30.95;97403.97;5025978;28;20233;-69
2022/08/13 08:17:11;;;;;;;4.10;1.67;;;;;;;27.97;31.25;97411.34;5033977;28;20465;-68
2022/08/13 08:19:41;;;;;;;6.60;2.03;;;;;;;28.11;30.77;97410.88;5033845;28;20208;-68
2022/08/13 08:22:11;;;;;;;4.23;1.93;;;;;;;28.21;30.43;97413.66;5026374;28;20501;-69
2022/08/13 08:24:37;;;;;;;3.97;2.10;;;;;;;28.34;30.38;97415.03;5026750;28;20422;-68
2022/08/13 08:27:05;;;;;;;2.27;1.70;;;;;;;28.49;30.65;97416.97;5029890;28;20439;-69
2022/08/13 08:29:32;;;;;;;4.30;1.80;;;;;;;28.67;30.52;97419.22;5020342;28;20487;-68
2022/08/13 08:31:59;;;;;;;3.57;1.73;;;;;;;28.74;30.06;97420.88;5029886;28;20693;-68
2022/08/13 08:34:25;;;;;;;2.50;2.30;;;;;;;28.80;29.69;97423.31;5028942;28;20430;-69
2022/08/13 08:36:53;;;;;;;8.93;2.00;;;;;;;28.85;29.62;97419.84;5011954;28;20445;-70
2022/08/13 08:44:48;;;;;;;2.40;2.20;;;;;;;29.03;29.31;97420.41;5009765;28;20949;-69
2022/08/13 08:47:13;;;;;;;3.17;1.97;;;;;;;29.12;29.53;97419.63;5029298;28;20426;-69
2022/08/13 08:49:40;;;;;;;3.00;2.03;;;;;;;29.14;29.42;97421.25;5030344;28;20241;-69
2022/08/13 08:52:06;;;;;;;2.27;1.97;;;;;;;29.09;29.63;97420.13;5030557;28;20207;-70
2022/08/13 08:54:32;;;;;;;6.93;1.90;;;;;;;29.02;30.02;97418.78;5030129;28;21108;-69
2022/08/13 08:56:58;;;;;;;2.83;1.77;;;;;;;28.98;30.33;97426.59;5029677;28;20184;-69
2022/08/13 08:59:27;;;;;;;2.37;1.80;;;;;;;28.94;29.67;97415.53;5031286;28;22108;-69
2022/08/13 09:01:55;;;;;;;2.47;2.03;;;;;;;28.92;29.60;97423.09;5029627;28;20430;-69
2022/08/13 09:04:28;;;;;;;1.97;1.73;;;;;;;28.72;29.94;97410.34;5028654;28;20427;-69
2022/08/13 09:06:57;;;;;;;3.20;1.90;;;;;;;28.54;30.23;97413.50;5025078;28;20426;-68
2022/08/13 09:09:23;;;;;;;7.10;2.13;;;;;;;28.27;30.57;97415.28;5028720;28;20533;-69
2022/08/13 09:11:55;;;;;;;2.17;1.97;;;;;;;28.12;30.57;97413.31;5028747;28;20461;-69
2022/08/13 09:14:32;;;;;;;2.23;2.03;;;;;;;28.06;31.15;97417.03;5029661;28;20426;-69
2022/08/13 09:16:59;;;;;;;11.70;2.17;;;;;;;28.04;31.32;97419.97;5029435;28;20422;-68
2022/08/13 09:19:25;;;;;;;3.90;2.50;;;;;;;28.17;31.24;97415.22;5029811;28;20994;-69
2022/08/13 09:21:51;;;;;;;1.90;1.80;;;;;;;28.34;31.59;97410.47;5030335;28;20423;-69
2022/08/13 09:24:24;;;;;;;2.20;2.00;;;;;;;28.54;31.22;97402.72;5029083;28;20426;-68
2022/08/13 09:26:51;;;;;;;3.10;2.20;;;;;;;28.74;30.32;97407.38;5032670;28;20257;-68
2022/08/13 09:29:18;;;;;;;1.80;1.70;;;;;;;28.89;30.00;97399.34;5040915;28;20825;-69
2022/08/13 09:31:50;;;;;;;4.37;2.27;;;;;;;28.90;30.27;97403.66;5032897;28;20436;-69
2022/08/13 09:34:16;;;;;;;3.93;1.80;;;;;;;28.92;30.37;97398.81;5031505;28;20436;-69
2022/08/13 09:36:43;;;;;;;2.67;2.40;;;;;;;28.83;29.69;97399.59;5032720;28;20473;-68
2022/08/13 09:39:08;;;;;;;2.67;1.90;;;;;;;28.73;29.82;97395.81;5033335;28;20482;-69
2022/08/13 09:41:40;;;;;;;2.30;2.10;;;;;;;28.72;30.23;97393.34;5033497;28;20952;-69
2022/08/13 09:44:05;;;;;;;4.13;2.13;;;;;;;28.86;30.37;97396.38;5031728;28;20211;-69
2022/08/13 09:46:34;;;;;;;4.50;1.90;;;;;;;29.15;30.14;97393.97;5032553;28;20474;-69
2022/08/13 09:49:00;;;;;;;4.33;1.97;;;;;;;29.48;29.39;97383.78;5033328;28;20493;-69
2022/08/13 09:51:35;;;;;;;3.80;1.80;;;;;;;29.66;28.75;97386.97;5034549;28;20444;-69
2022/08/13 09:54:05;;;;;;;2.40;1.93;;;;;;;29.91;28.12;97383.44;5033303;28;20557;-69
2022/08/13 09:56:32;;;;;;;2.53;1.70;;;;;;;30.27;27.52;97382.53;5032062;28;21004;-69
2022/08/13 09:58:58;;;;;;;2.10;1.77;;;;;;;30.62;27.65;97378.88;5039002;28;21059;-70
2022/08/13 10:01:24;;;;;;;3.80;1.57;;;;;;;30.91;26.53;97380.06;5033449;28;20444;-70
2022/08/13 10:03:50;;;;;;;2.00;1.80;;;;;;;31.14;26.64;97383.16;5030743;28;20465;-69
2022/08/13 10:06:18;;;;;;;4.80;1.70;;;;;;;31.21;25.89;97380.97;5028492;28;20484;-69
2022/08/13 10:08:47;;;;;;;3.50;2.00;;;;;;;31.28;26.21;97377.94;5031588;28;20485;-68
2022/08/13 10:11:16;;;;;;;2.60;1.50;;;;;;;31.43;25.65;97379.69;5013378;28;20514;-69
2022/08/13 10:13:42;;;;;;;3.20;1.93;;;;;;;31.41;25.42;97380.00;5033329;28;20466;-68
2022/08/13 10:16:07;;;;;;;4.40;1.57;;;;;;;31.38;25.38;97388.66;5028790;28;20922;-69
2022/08/13 10:18:33;;;;;;;2.83;1.90;;;;;;;31.46;25.36;97384.53;5031106;28;20211;-69
2022/08/13 10:20:58;;;;;;;1.93;1.60;;;;;;;31.63;25.55;97390.31;5033312;28;20718;-68
2022/08/13 10:23:24;;;;;;;2.97;1.70;;;;;;;31.80;24.89;97386.41;5026201;28;20180;-68
2022/08/13 10:25:52;;;;;;;1.80;1.67;;;;;;;31.76;24.86;97388.09;5029143;28;20599;-70
2022/08/13 10:28:21;;;;;;;2.10;1.40;;;;;;;31.24;24.78;97388.53;5038368;28;20203;-69
2022/08/13 10:30:46;;;;;;;3.47;1.70;;;;;;;31.01;24.72;97388.09;5032773;28;20414;-68
2022/08/13 10:33:12;;;;;;;1.60;1.50;;;;;;;30.79;24.98;97381.22;5031625;28;20972;-70
2022/08/13 10:35:39;;;;;;;4.10;1.60;;;;;;;30.71;25.52;97376.41;5033122;28;20187;-69
2022/08/13 10:38:07;;;;;;;3.30;2.03;;;;;;;30.67;25.56;97377.25;5012953;28;20789;-70
2022/08/13 10:40:33;;;;;;;2.10;1.80;;;;;;;30.46;24.91;97370.00;5034643;28;20880;-69
2022/08/13 10:42:58;;;;;;;6.10;1.73;;;;;;;30.39;24.84;97371.41;5032616;28;20450;-70
2022/08/13 10:45:24;;;;;;;1.83;1.60;;;;;;;30.35;25.42;97379.25;5031938;28;20196;-69
2022/08/13 10:47:57;;;;;;;7.30;1.67;;;;;;;30.30;25.37;97368.47;5031357;28;20195;-69
2022/08/13 10:50:29;;;;;;;2.73;1.80;;;;;;;30.17;25.40;97369.88;5032352;28;20662;-69
2022/08/13 10:52:56;;;;;;;1.73;1.40;;;;;;;30.03;25.72;97361.53;5030833;28;20454;-69
2022/08/13 10:55:22;;;;;;;3.27;1.50;;;;;;;29.97;25.83;97355.34;5030730;28;20862;-69
2022/08/13 10:57:48;;;;;;;3.17;1.80;;;;;;;29.86;26.04;97365.34;5031444;28;20489;-69
2022/08/13 11:00:16;;;;;;;1.97;1.70;;;;;;;29.87;25.87;97352.66;5030488;28;20437;-68
2022/08/13 11:02:42;;;;;;;2.17;1.90;;;;;;;29.89;25.73;97358.59;5028262;28;20179;-69
2022/08/13 11:05:09;;;;;;;4.20;1.73;;;;;;;30.12;25.28;97354.47;5031743;28;20431;-69
2022/08/13 11:07:36;;;;;;;1.60;1.50;;;;;;;30.48;25.11;97351.63;5031339;28;20564;-68
2022/08/13 11:10:08;;;;;;;3.63;1.80;;;;;;;30.93;24.63;97348.13;5030780;28;20443;-69
2022/08/13 11:12:36;;;;;;;5.50;2.37;;;;;;;31.27;23.82;97341.91;5036840;28;20480;-70
2022/08/13 11:15:04;;;;;;;8.03;1.90;;;;;;;31.67;23.39;97348.03;5031620;28;20433;-69
2022/08/13 11:17:29;;;;;;;3.57;1.70;;;;;;;31.89;22.82;97343.25;5024926;28;20524;-69
2022/08/13 11:19:55;;;;;;;2.37;1.77;;;;;;;32.09;22.48;97345.72;5030203;28;20474;-68
2022/08/13 11:22:23;;;;;;;3.60;1.80;;;;;;;32.38;22.29;97344.06;5031770;28;20236;-68
2022/08/13 11:24:48;;;;;;;1.70;1.60;;;;;;;32.52;21.58;97338.72;5026739;28;20190;-68
2022/08/13 11:27:15;;;;;;;3.17;1.77;;;;;;;32.76;21.70;97344.06;5030661;28;20505;-68
2022/08/13 11:29:41;;;;;;;1.77;1.67;;;;;;;32.93;21.94;97336.22;5043190;28;20211;-68
2022/08/13 11:32:06;;;;;;;5.33;1.70;;;;;;;32.99;21.39;97342.38;5031578;28;20470;-69
2022/08/13 11:34:33;;;;;;;1.70;1.60;;;;;;;33.01;21.42;97333.94;5031603;28;20192;-68
2022/08/13 11:36:59;;;;;;;6.97;1.60;;;;;;;32.98;21.24;97332.63;5031086;28;20196;-68
2022/08/13 11:39:24;;;;;;;7.00;1.70;;;;;;;33.11;21.41;97325.63;5036657;28;20453;-69
2022/08/13 11:41:50;;;;;;;2.00;1.50;;;;;;;33.11;21.06;97320.22;5033750;28;20187;-68
2022/08/13 11:44:16;;;;;;;2.03;1.60;;;;;;;33.13;21.06;97325.31;5029798;28;20198;-68
2022/08/13 11:46:42;;;;;;;1.83;1.70;;;;;;;33.06;20.91;97333.84;5030932;28;20184;-68
2022/08/13 11:49:07;;;;;;;1.70;1.53;;;;;;;33.26;21.30;97323.78;5030747;28;21011;-70
2022/08/13 11:51:33;;;;;;;4.10;1.83;;;;;;;33.43;21.01;97320.50;5030358;28;20270;-68
2022/08/13 11:53:58;;;;;;;4.03;1.80;;;;;;;33.58;21.06;97322.13;5031693;28;20257;-69
2022/08/13 11:56:24;;;;;;;3.33;1.63;;;;;;;33.50;20.97;97323.63;5029892;28;20215;-70